Time;durP1;ratioP1;P1;durP2;ratioP2;P2;SDS_P1;SDS_P2;PMS_P1;PMS_P2;Temp;Humidity;BMP_temperature;BMP_pressure;BME280_temperature;BME280_humidity;BME280_pressure;Samples;Min_cycle;Max_cycle;Signal;HPM_P1;HPM_P2
2023/12/03 00:01:05;;;;;;;31.50;19.05;;;;;;;;;;12824881;22;20572;-73
2023/12/03 00:06:02;;;;;;;35.53;18.85;;;;;;;;;;12820875;22;20027;-73
2023/12/03 00:10:58;;;;;;;33.00;17.98;;;;;;;;;;12825933;22;20023;-72
2023/12/03 00:15:55;;;;;;;31.00;18.80;;;;;;;;;;12825600;22;20023;-72
2023/12/03 00:20:51;;;;;;;29.38;17.70;;;;;;;;;;12825419;22;20027;-72
2023/12/03 00:25:47;;;;;;;31.63;19.73;;;;;;;;;;12825776;22;20023;-72
2023/12/03 00:30:44;;;;;;;30.50;18.05;;;;;;;;;;12825336;22;20524;-72
2023/12/03 00:35:40;;;;;;;26.10;17.83;;;;;;;;;;12824633;22;20582;-72
2023/12/03 00:40:39;;;;;;;29.83;18.10;;;;;;;;;;12825463;22;20506;-71
2023/12/03 00:45:35;;;;;;;31.48;18.42;;;;;;;;;;12825360;22;20073;-72
2023/12/03 00:50:32;;;;;;;31.08;18.00;;;;;;;;;;12824034;22;20084;-72
2023/12/03 00:55:28;;;;;;;32.55;19.15;;;;;;;;;;12824360;22;20077;-72
2023/12/03 01:00:24;;;;;;;34.17;19.08;;;;;;;;;;12825557;22;20024;-71
2023/12/03 01:05:21;;;;;;;34.65;19.33;;;;;;;;;;12823327;22;20046;-72
2023/12/03 01:10:17;;;;;;;34.58;19.20;;;;;;;;;;12818511;22;20026;-72
2023/12/03 01:15:13;;;;;;;31.33;19.35;;;;;;;;;;12823750;22;20022;-72
2023/12/03 01:20:10;;;;;;;38.83;21.60;;;;;;;;;;12824546;22;20023;-72
2023/12/03 01:25:07;;;;;;;32.60;19.85;;;;;;;;;;12824719;22;20089;-72
2023/12/03 01:30:04;;;;;;;31.77;19.63;;;;;;;;;;12824577;22;20019;-72
2023/12/03 01:35:00;;;;;;;33.20;19.42;;;;;;;;;;12823831;22;20137;-72
2023/12/03 01:39:57;;;;;;;29.30;17.67;;;;;;;;;;12821477;22;20400;-72
2023/12/03 01:44:53;;;;;;;30.92;17.45;;;;;;;;;;12823878;22;20392;-71
2023/12/03 01:49:49;;;;;;;33.58;18.83;;;;;;;;;;12823338;22;20465;-72
2023/12/03 01:54:47;;;;;;;36.45;17.98;;;;;;;;;;12822569;22;20023;-72
2023/12/03 01:59:43;;;;;;;29.02;17.30;;;;;;;;;;12823268;22;20019;-72
2023/12/03 02:04:39;;;;;;;33.33;19.33;;;;;;;;;;12823085;22;20365;-72
2023/12/03 02:09:37;;;;;;;28.85;17.63;;;;;;;;;;12822432;22;20051;-72
2023/12/03 02:14:34;;;;;;;27.23;17.88;;;;;;;;;;12815717;22;20102;-72
2023/12/03 02:19:30;;;;;;;33.75;18.77;;;;;;;;;;12822254;22;20023;-72
2023/12/03 02:24:26;;;;;;;32.95;17.67;;;;;;;;;;12822597;22;20023;-72
2023/12/03 02:29:23;;;;;;;33.50;18.83;;;;;;;;;;12822178;22;20027;-72
2023/12/03 02:34:19;;;;;;;26.00;16.70;;;;;;;;;;12821640;22;20031;-72
2023/12/03 02:39:15;;;;;;;30.15;17.83;;;;;;;;;;12820741;22;20027;-72
2023/12/03 02:44:12;;;;;;;30.50;17.17;;;;;;;;;;12822025;22;20030;-73
2023/12/03 02:49:08;;;;;;;32.50;17.88;;;;;;;;;;12819023;22;20081;-72
2023/12/03 02:54:06;;;;;;;34.10;18.58;;;;;;;;;;12820509;22;20031;-72
2023/12/03 02:59:02;;;;;;;30.67;18.73;;;;;;;;;;12819740;22;20620;-72
2023/12/03 03:03:58;;;;;;;31.75;20.27;;;;;;;;;;12820642;22;20026;-72
2023/12/03 03:08:55;;;;;;;34.72;19.77;;;;;;;;;;12821196;22;20081;-72
2023/12/03 03:13:51;;;;;;;30.25;19.23;;;;;;;;;;12820963;22;20031;-72
2023/12/03 03:18:49;;;;;;;32.17;19.00;;;;;;;;;;12820922;22;20080;-72
2023/12/03 03:23:46;;;;;;;31.92;18.30;;;;;;;;;;12815564;22;20102;-72
2023/12/03 03:28:42;;;;;;;34.17;18.80;;;;;;;;;;12820376;22;20080;-74
2023/12/03 03:33:38;;;;;;;30.02;18.00;;;;;;;;;;12819013;22;20026;-72
2023/12/03 03:38:35;;;;;;;28.27;17.17;;;;;;;;;;12820758;22;20173;-72
2023/12/03 03:43:31;;;;;;;35.22;19.10;;;;;;;;;;12821388;22;20027;-72
2023/12/03 03:48:27;;;;;;;30.15;16.23;;;;;;;;;;12821012;22;20031;-72
2023/12/03 03:53:24;;;;;;;30.95;17.60;;;;;;;;;;12821158;22;20031;-71
2023/12/03 03:58:20;;;;;;;25.05;16.88;;;;;;;;;;12821298;22;20023;-72
2023/12/03 04:03:16;;;;;;;26.38;16.05;;;;;;;;;;12817846;22;20024;-71
2023/12/03 04:08:12;;;;;;;26.45;16.23;;;;;;;;;;12821210;22;20102;-72
2023/12/03 04:13:09;;;;;;;25.95;15.75;;;;;;;;;;12819031;22;20030;-71
2023/12/03 04:18:05;;;;;;;31.00;16.10;;;;;;;;;;12820896;22;20023;-72
2023/12/03 04:23:01;;;;;;;27.98;16.83;;;;;;;;;;12819215;22;20768;-72
2023/12/03 04:27:58;;;;;;;24.30;15.88;;;;;;;;;;12820178;22;20054;-71
2023/12/03 04:32:55;;;;;;;27.38;16.77;;;;;;;;;;12820885;22;20031;-72
2023/12/03 04:37:51;;;;;;;27.83;16.05;;;;;;;;;;12821075;22;20039;-72
2023/12/03 04:42:48;;;;;;;27.60;16.33;;;;;;;;;;12822523;22;20476;-71
2023/12/03 04:47:44;;;;;;;26.92;16.45;;;;;;;;;;12823100;22;20030;-72
2023/12/03 04:52:40;;;;;;;30.55;16.58;;;;;;;;;;12818358;22;20020;-71
2023/12/03 04:57:37;;;;;;;26.85;16.25;;;;;;;;;;12823081;22;20049;-72
2023/12/03 05:02:33;;;;;;;27.48;16.45;;;;;;;;;;12823759;22;20031;-71
2023/12/03 05:07:30;;;;;;;29.75;16.63;;;;;;;;;;12823986;22;20030;-71
2023/12/03 05:12:26;;;;;;;29.88;17.52;;;;;;;;;;12823665;22;20025;-72
2023/12/03 05:17:23;;;;;;;31.27;17.80;;;;;;;;;;12824302;22;20019;-71
2023/12/03 05:22:19;;;;;;;31.75;17.80;;;;;;;;;;12823445;22;20090;-71
2023/12/03 05:27:15;;;;;;;29.92;16.65;;;;;;;;;;12823588;22;20109;-71
2023/12/03 05:32:12;;;;;;;31.15;15.40;;;;;;;;;;12823683;22;20038;-72
2023/12/03 05:37:08;;;;;;;26.45;15.60;;;;;;;;;;12823128;22;20072;-72
2023/12/03 05:42:04;;;;;;;24.23;15.95;;;;;;;;;;12821771;22;20019;-72
2023/12/03 05:47:00;;;;;;;34.70;17.90;;;;;;;;;;12822707;22;20022;-72
2023/12/03 05:51:57;;;;;;;29.48;18.30;;;;;;;;;;12823427;22;20031;-72
2023/12/03 05:56:53;;;;;;;28.30;17.08;;;;;;;;;;12815604;22;20465;-72
2023/12/03 06:01:49;;;;;;;34.47;18.45;;;;;;;;;;12822933;22;20085;-73
2023/12/03 06:06:46;;;;;;;29.95;17.23;;;;;;;;;;12823333;22;20081;-72
2023/12/03 06:11:42;;;;;;;31.08;18.42;;;;;;;;;;12823222;22;20035;-72
2023/12/03 06:16:39;;;;;;;30.75;19.05;;;;;;;;;;12823341;22;20027;-72
2023/12/03 06:21:35;;;;;;;30.85;17.95;;;;;;;;;;12822919;22;20027;-72
2023/12/03 06:26:31;;;;;;;31.48;19.50;;;;;;;;;;12822419;22;20023;-72
2023/12/03 06:31:28;;;;;;;32.65;18.95;;;;;;;;;;12823088;22;20027;-71
2023/12/03 06:36:25;;;;;;;32.00;18.80;;;;;;;;;;12822582;22;20577;-71
2023/12/03 06:41:21;;;;;;;29.25;17.52;;;;;;;;;;12821643;22;20051;-71
2023/12/03 06:46:17;;;;;;;32.47;19.33;;;;;;;;;;12822958;22;20027;-72
2023/12/03 06:51:14;;;;;;;35.67;18.58;;;;;;;;;;12822479;22;20027;-71
2023/12/03 06:56:11;;;;;;;32.28;18.10;;;;;;;;;;12822002;22;20107;-71
2023/12/03 07:01:07;;;;;;;34.10;19.50;;;;;;;;;;12816580;22;20027;-72
2023/12/03 07:06:04;;;;;;;33.72;18.05;;;;;;;;;;12821773;22;20050;-71
2023/12/03 07:11:00;;;;;;;32.03;17.77;;;;;;;;;;12822466;22;20031;-73
2023/12/03 07:15:56;;;;;;;26.25;17.08;;;;;;;;;;12821172;22;20027;-72
2023/12/03 07:20:53;;;;;;;31.63;18.52;;;;;;;;;;12821499;22;20019;-71
2023/12/03 07:25:49;;;;;;;32.88;17.25;;;;;;;;;;12822466;22;20069;-72
2023/12/03 07:30:46;;;;;;;35.40;18.85;;;;;;;;;;12821571;22;20053;-71
2023/12/03 07:35:42;;;;;;;30.58;18.25;;;;;;;;;;12822129;22;20364;-73
2023/12/03 07:40:39;;;;;;;42.30;19.67;;;;;;;;;;12822262;22;20026;-71
2023/12/03 07:45:36;;;;;;;38.67;18.25;;;;;;;;;;12822397;22;20483;-71
2023/12/03 07:50:32;;;;;;;36.92;18.77;;;;;;;;;;12809028;22;20043;-71
2023/12/03 07:55:29;;;;;;;31.02;18.77;;;;;;;;;;12821101;22;20019;-71
2023/12/03 08:00:28;;;;;;;35.58;19.00;;;;;;;;;;12818916;22;20030;-73
2023/12/03 08:05:25;;;;;;;34.75;19.02;;;;;;;;;;12816955;22;20019;-72
2023/12/03 08:10:21;;;;;;;33.88;18.33;;;;;;;;;;12821795;22;26839;-72
2023/12/03 08:15:17;;;;;;;35.10;17.80;;;;;;;;;;12821422;22;20491;-71
2023/12/03 08:20:14;;;;;;;33.78;19.15;;;;;;;;;;12824968;22;20038;-72
2023/12/03 08:25:10;;;;;;;33.92;18.08;;;;;;;;;;12825016;22;20026;-71
2023/12/03 08:30:08;;;;;;;33.70;17.55;;;;;;;;;;12826174;22;20023;-72
2023/12/03 08:35:04;;;;;;;37.13;19.92;;;;;;;;;;12825022;22;20019;-73
2023/12/03 08:40:01;;;;;;;31.73;17.58;;;;;;;;;;12825179;22;20019;-73
2023/12/03 08:44:57;;;;;;;28.30;16.65;;;;;;;;;;12823967;22;20015;-72
2023/12/03 08:49:53;;;;;;;31.65;17.45;;;;;;;;;;12824250;22;20019;-72
2023/12/03 08:54:50;;;;;;;33.70;16.38;;;;;;;;;;12824413;22;20031;-72
2023/12/03 08:59:47;;;;;;;24.75;14.68;;;;;;;;;;12822422;22;20508;-71
2023/12/03 09:04:43;;;;;;;28.63;14.43;;;;;;;;;;12820336;22;20019;-72
2023/12/03 09:09:39;;;;;;;26.15;14.85;;;;;;;;;;12823722;22;20102;-70
2023/12/03 09:14:36;;;;;;;19.17;13.10;;;;;;;;;;12824367;22;20475;-71
2023/12/03 09:19:33;;;;;;;24.50;14.27;;;;;;;;;;12823291;22;20438;-71
2023/12/03 09:24:30;;;;;;;25.75;14.60;;;;;;;;;;12824517;22;20033;-72
2023/12/03 09:29:26;;;;;;;28.52;16.20;;;;;;;;;;12822907;22;20035;-73
2023/12/03 09:34:23;;;;;;;22.45;15.32;;;;;;;;;;12823753;22;20456;-72
2023/12/03 09:39:19;;;;;;;29.58;15.90;;;;;;;;;;12823274;22;20053;-72
2023/12/03 09:44:19;;;;;;;29.85;15.45;;;;;;;;;;12823472;22;20023;-72
2023/12/03 09:49:17;;;;;;;25.33;14.82;;;;;;;;;;12823358;22;20058;-72
2023/12/03 09:54:14;;;;;;;32.47;17.38;;;;;;;;;;12823048;22;20050;-72
2023/12/03 09:59:14;;;;;;;33.90;16.45;;;;;;;;;;12823672;22;20023;-73
2023/12/03 10:04:10;;;;;;;30.98;15.85;;;;;;;;;;12822949;22;20030;-72
2023/12/03 10:09:07;;;;;;;28.92;15.55;;;;;;;;;;12818448;22;20023;-72
2023/12/03 10:14:05;;;;;;;28.52;15.27;;;;;;;;;;12822021;22;20019;-72
2023/12/03 10:19:02;;;;;;;25.48;14.15;;;;;;;;;;12820935;22;20101;-71
2023/12/03 10:24:00;;;;;;;25.48;13.93;;;;;;;;;;12822992;22;20069;-72
2023/12/03 10:28:57;;;;;;;24.00;14.63;;;;;;;;;;12822256;22;20031;-73
2023/12/03 10:33:53;;;;;;;27.20;14.77;;;;;;;;;;12822494;22;20114;-72
2023/12/03 10:38:50;;;;;;;26.52;14.90;;;;;;;;;;12822775;22;20102;-72
2023/12/03 10:43:46;;;;;;;23.58;14.30;;;;;;;;;;12822652;22;20439;-72
2023/12/03 10:48:44;;;;;;;27.48;14.90;;;;;;;;;;12821889;22;20027;-72
2023/12/03 10:53:40;;;;;;;28.95;15.27;;;;;;;;;;12821883;22;20028;-72
2023/12/03 10:58:37;;;;;;;34.13;17.65;;;;;;;;;;12822025;22;20031;-72
2023/12/03 11:03:41;;;;;;;31.48;16.55;;;;;;;;;;12821698;22;20050;-72
2023/12/03 11:08:38;;;;;;;26.80;15.13;;;;;;;;;;12819412;22;20518;-71
2023/12/03 11:13:34;;;;;;;26.58;16.20;;;;;;;;;;12816482;22;20023;-72
2023/12/03 11:19:00;;;;;;;33.53;17.35;;;;;;;;;;12821750;22;20031;-71
2023/12/03 11:23:58;;;;;;;30.52;16.00;;;;;;;;;;12821767;22;20027;-71
2023/12/03 11:28:57;;;;;;;25.90;15.82;;;;;;;;;;12820502;22;20023;-73
2023/12/03 11:33:58;;;;;;;31.70;17.48;;;;;;;;;;12821988;22;20027;-71
2023/12/03 11:38:56;;;;;;;29.80;16.55;;;;;;;;;;12821299;22;20031;-73
2023/12/03 11:43:52;;;;;;;25.88;16.38;;;;;;;;;;12821700;22;20453;-72
2023/12/03 11:48:49;;;;;;;27.50;17.98;;;;;;;;;;12822293;22;20031;-72
2023/12/03 11:53:52;;;;;;;31.17;17.63;;;;;;;;;;12824697;22;20023;-71
2023/12/03 11:58:50;;;;;;;28.10;16.55;;;;;;;;;;12825817;22;20019;-72
2023/12/03 12:03:46;;;;;;;33.00;16.73;;;;;;;;;;12825571;22;20500;-72
2023/12/03 12:08:42;;;;;;;31.30;17.30;;;;;;;;;;12825334;22;20031;-72
2023/12/03 12:13:39;;;;;;;29.00;16.67;;;;;;;;;;12818010;22;20504;-72
2023/12/03 12:18:36;;;;;;;29.27;15.95;;;;;;;;;;12825718;22;20077;-71
2023/12/03 12:23:32;;;;;;;28.02;16.20;;;;;;;;;;12824946;22;20030;-70
2023/12/03 12:28:28;;;;;;;26.70;16.23;;;;;;;;;;12825030;22;20023;-72
2023/12/03 12:33:25;;;;;;;28.95;16.70;;;;;;;;;;12824866;22;20092;-72
2023/12/03 12:38:22;;;;;;;24.05;15.45;;;;;;;;;;12824870;22;20011;-71
2023/12/03 12:43:21;;;;;;;26.77;16.45;;;;;;;;;;12824379;22;20023;-71
2023/12/03 12:48:24;;;;;;;33.15;17.67;;;;;;;;;;12824575;22;20034;-71
2023/12/03 12:53:22;;;;;;;29.65;16.38;;;;;;;;;;12823086;22;20019;-71
2023/12/03 12:58:18;;;;;;;28.50;16.33;;;;;;;;;;12825200;22;20582;-71
2023/12/03 13:03:15;;;;;;;25.45;16.55;;;;;;;;;;12824268;22;20019;-73
2023/12/03 13:08:11;;;;;;;28.55;16.58;;;;;;;;;;12824665;22;20023;-72
2023/12/03 13:13:08;;;;;;;27.33;15.60;;;;;;;;;;12823547;22;20027;-71
2023/12/03 13:18:05;;;;;;;28.50;15.98;;;;;;;;;;12825040;22;20030;-71
2023/12/03 13:23:16;;;;;;;27.13;15.15;;;;;;;;;;12818864;22;20027;-72
2023/12/03 13:28:13;;;;;;;25.80;16.08;;;;;;;;;;12824363;22;20053;-72
2023/12/03 13:33:09;;;;;;;27.50;16.33;;;;;;;;;;12822448;22;20130;-72
2023/12/03 13:38:06;;;;;;;28.88;16.77;;;;;;;;;;12823453;22;20023;-73
2023/12/03 13:43:02;;;;;;;25.17;16.42;;;;;;;;;;12825705;22;20023;-71
2023/12/03 13:47:59;;;;;;;31.55;17.23;;;;;;;;;;12824073;22;20043;-71
2023/12/03 13:52:56;;;;;;;27.90;17.13;;;;;;;;;;12824642;22;20023;-71
2023/12/03 13:57:53;;;;;;;30.95;16.52;;;;;;;;;;12826802;22;20102;-72
2023/12/03 14:02:49;;;;;;;28.50;16.25;;;;;;;;;;12824133;22;20019;-70
2023/12/03 14:07:46;;;;;;;30.63;18.10;;;;;;;;;;12825289;22;20023;-71
2023/12/03 14:12:43;;;;;;;31.50;17.33;;;;;;;;;;12824351;22;20027;-70
2023/12/03 14:17:41;;;;;;;33.95;16.40;;;;;;;;;;12823490;22;20019;-71
2023/12/03 14:22:38;;;;;;;25.98;15.82;;;;;;;;;;12826821;22;20636;-70
2023/12/03 14:27:35;;;;;;;25.13;16.23;;;;;;;;;;12819462;22;20076;-70
2023/12/03 14:32:31;;;;;;;39.30;18.25;;;;;;;;;;12824167;22;20023;-71
2023/12/03 14:37:28;;;;;;;32.67;17.75;;;;;;;;;;12824226;22;20023;-70
2023/12/03 14:42:25;;;;;;;34.78;17.80;;;;;;;;;;12824063;22;20034;-70
2023/12/03 14:47:21;;;;;;;31.10;17.48;;;;;;;;;;12822945;22;20399;-71
2023/12/03 14:52:18;;;;;;;30.25;17.92;;;;;;;;;;12823743;22;20411;-71
2023/12/03 14:57:14;;;;;;;30.40;17.10;;;;;;;;;;12822916;22;20023;-70
2023/12/03 15:02:10;;;;;;;32.08;16.63;;;;;;;;;;12823075;22;20107;-70
2023/12/03 15:07:07;;;;;;;31.70;16.95;;;;;;;;;;12823293;22;20102;-70
2023/12/03 15:12:04;;;;;;;30.95;17.33;;;;;;;;;;12822519;22;20023;-71
2023/12/03 15:17:01;;;;;;;33.60;18.42;;;;;;;;;;12822508;22;20033;-71
2023/12/03 15:21:57;;;;;;;30.42;17.85;;;;;;;;;;12822846;22;20015;-70
2023/12/03 15:26:53;;;;;;;31.05;17.98;;;;;;;;;;12818955;22;20031;-71
2023/12/03 15:31:50;;;;;;;31.02;16.73;;;;;;;;;;12820857;22;20096;-71
2023/12/03 15:36:48;;;;;;;27.48;18.23;;;;;;;;;;12822653;22;20023;-71
2023/12/03 15:41:45;;;;;;;28.40;18.05;;;;;;;;;;12822169;22;20023;-71
2023/12/03 15:46:41;;;;;;;28.02;17.40;;;;;;;;;;12822052;22;20024;-71
2023/12/03 15:51:38;;;;;;;29.55;18.73;;;;;;;;;;12821276;22;20031;-72
2023/12/03 15:56:34;;;;;;;31.08;18.52;;;;;;;;;;12821126;22;20102;-71
2023/12/03 16:01:31;;;;;;;32.30;19.13;;;;;;;;;;12822045;22;20030;-70
2023/12/03 16:06:27;;;;;;;38.90;19.83;;;;;;;;;;12822363;22;20473;-71
2023/12/03 16:11:24;;;;;;;36.42;20.83;;;;;;;;;;12821521;22;20027;-71
2023/12/03 16:16:20;;;;;;;39.97;20.65;;;;;;;;;;12822178;22;20038;-71
2023/12/03 16:21:17;;;;;;;35.60;19.05;;;;;;;;;;12821190;22;20021;-71
2023/12/03 16:26:13;;;;;;;30.77;18.85;;;;;;;;;;12822207;22;20019;-72
2023/12/03 16:31:10;;;;;;;33.00;18.35;;;;;;;;;;12814684;22;20027;-72
2023/12/03 16:36:07;;;;;;;37.97;18.48;;;;;;;;;;12822181;22;20026;-71
2023/12/03 16:41:04;;;;;;;31.15;18.83;;;;;;;;;;12825140;22;20019;-71
2023/12/03 16:46:00;;;;;;;32.67;18.60;;;;;;;;;;12826110;22;20023;-71
2023/12/03 16:50:57;;;;;;;29.60;17.13;;;;;;;;;;12825243;22;20023;-71
2023/12/03 16:55:54;;;;;;;29.73;15.35;;;;;;;;;;12824239;22;20069;-71
2023/12/03 17:00:50;;;;;;;26.75;15.07;;;;;;;;;;12824967;22;20403;-73
2023/12/03 17:05:47;;;;;;;25.80;14.48;;;;;;;;;;12824856;22;20019;-71
2023/12/03 17:10:43;;;;;;;23.13;14.85;;;;;;;;;;12825140;22;20460;-71
2023/12/03 17:15:39;;;;;;;27.95;15.13;;;;;;;;;;12823877;22;20330;-71
2023/12/03 17:20:36;;;;;;;34.13;18.38;;;;;;;;;;12824969;22;20034;-71
2023/12/03 17:25:32;;;;;;;27.20;17.23;;;;;;;;;;12824145;22;20030;-71
2023/12/03 17:30:29;;;;;;;30.33;17.80;;;;;;;;;;12824077;22;20072;-70
2023/12/03 17:35:27;;;;;;;32.45;18.35;;;;;;;;;;12818525;22;20094;-71
2023/12/03 17:40:24;;;;;;;33.10;18.98;;;;;;;;;;12823516;22;20360;-70
2023/12/03 17:45:24;;;;;;;32.22;18.52;;;;;;;;;;12824079;22;20026;-71
2023/12/03 17:50:21;;;;;;;31.92;18.95;;;;;;;;;;12822489;22;20023;-70
2023/12/03 17:55:19;;;;;;;31.55;17.02;;;;;;;;;;12822946;22;20596;-71
2023/12/03 18:00:15;;;;;;;32.72;18.15;;;;;;;;;;12823962;22;20019;-71
2023/12/03 18:05:12;;;;;;;31.58;17.40;;;;;;;;;;12821859;22;20640;-71
2023/12/03 18:10:11;;;;;;;26.65;16.58;;;;;;;;;;12823219;22;20034;-71
2023/12/03 18:15:08;;;;;;;25.42;15.55;;;;;;;;;;12823931;22;20023;-71
2023/12/03 18:20:05;;;;;;;20.40;13.63;;;;;;;;;;12823325;22;20025;-72
2023/12/03 18:25:01;;;;;;;24.00;14.73;;;;;;;;;;12823920;22;20019;-72
2023/12/03 18:29:59;;;;;;;26.13;15.35;;;;;;;;;;12823862;22;20022;-72
2023/12/03 18:34:55;;;;;;;22.90;15.10;;;;;;;;;;12816998;22;20051;-72
2023/12/03 18:39:51;;;;;;;25.00;14.63;;;;;;;;;;12821524;22;20522;-72
2023/12/03 18:44:48;;;;;;;24.48;15.10;;;;;;;;;;12822153;22;20058;-71
2023/12/03 18:49:44;;;;;;;22.33;14.35;;;;;;;;;;12821482;22;20378;-72
2023/12/03 18:54:42;;;;;;;25.48;13.98;;;;;;;;;;12822170;22;20080;-72
2023/12/03 18:59:39;;;;;;;25.20;14.40;;;;;;;;;;12822002;22;20023;-71
2023/12/03 19:04:35;;;;;;;29.50;15.82;;;;;;;;;;12821883;22;20015;-73
2023/12/03 19:09:32;;;;;;;24.00;14.90;;;;;;;;;;12821583;22;20092;-72
2023/12/03 19:14:28;;;;;;;23.33;14.27;;;;;;;;;;12821178;22;20046;-72
2023/12/03 19:19:24;;;;;;;21.27;14.13;;;;;;;;;;12821770;22;20065;-72
2023/12/03 19:24:21;;;;;;;25.45;14.70;;;;;;;;;;12821604;22;20469;-72
2023/12/03 19:29:17;;;;;;;22.98;14.48;;;;;;;;;;12822015;22;20026;-73
2023/12/03 19:34:13;;;;;;;20.65;14.40;;;;;;;;;;12821815;22;20108;-73
2023/12/03 19:39:10;;;;;;;20.23;13.40;;;;;;;;;;12821823;22;20027;-72
2023/12/03 19:44:06;;;;;;;23.15;15.07;;;;;;;;;;12821217;22;20023;-72
2023/12/03 19:49:03;;;;;;;24.02;14.30;;;;;;;;;;12821557;22;20494;-71
2023/12/03 19:53:59;;;;;;;26.13;15.05;;;;;;;;;;12821151;22;20035;-71
2023/12/03 19:58:57;;;;;;;21.52;16.02;;;;;;;;;;12816410;22;20023;-71
2023/12/03 20:03:54;;;;;;;22.58;14.68;;;;;;;;;;12821275;22;20015;-72
2023/12/03 20:08:50;;;;;;;24.42;15.75;;;;;;;;;;12821694;22;20030;-72
2023/12/03 20:13:46;;;;;;;25.48;15.30;;;;;;;;;;12823785;22;20088;-71
2023/12/03 20:18:43;;;;;;;24.60;14.10;;;;;;;;;;12825686;22;20069;-71
2023/12/03 20:23:40;;;;;;;19.95;14.35;;;;;;;;;;12825727;22;20027;-71
2023/12/03 20:28:39;;;;;;;23.17;14.73;;;;;;;;;;12823705;22;20068;-72
2023/12/03 20:33:35;;;;;;;24.52;15.65;;;;;;;;;;12824350;22;20538;-72
2023/12/03 20:38:32;;;;;;;23.48;14.73;;;;;;;;;;12823498;22;20080;-71
2023/12/03 20:43:29;;;;;;;25.23;15.95;;;;;;;;;;12823471;22;20073;-71
2023/12/03 20:48:26;;;;;;;28.38;16.05;;;;;;;;;;12824377;22;20019;-72
2023/12/03 20:53:22;;;;;;;24.75;15.50;;;;;;;;;;12824154;22;20023;-71
2023/12/03 20:58:18;;;;;;;27.15;17.08;;;;;;;;;;12819448;22;20078;-73
2023/12/03 21:03:16;;;;;;;32.30;17.23;;;;;;;;;;12824281;22;20077;-73
2023/12/03 21:08:12;;;;;;;26.40;16.70;;;;;;;;;;12822993;22;20023;-71
2023/12/03 21:13:09;;;;;;;27.58;17.90;;;;;;;;;;12823932;22;20023;-71
2023/12/03 21:18:05;;;;;;;31.80;17.02;;;;;;;;;;12824147;22;20026;-71
2023/12/03 21:23:01;;;;;;;31.38;17.63;;;;;;;;;;12824180;22;20036;-71
2023/12/03 21:27:58;;;;;;;28.95;17.70;;;;;;;;;;12824335;22;20023;-71
2023/12/03 21:32:55;;;;;;;30.13;17.48;;;;;;;;;;12824043;22;20346;-72
2023/12/03 21:37:53;;;;;;;30.23;16.75;;;;;;;;;;12824115;22;20033;-72
2023/12/03 21:42:49;;;;;;;29.45;17.33;;;;;;;;;;12824213;22;20019;-72
2023/12/03 21:47:45;;;;;;;33.50;16.92;;;;;;;;;;12821949;22;20108;-72
2023/12/03 21:52:42;;;;;;;32.00;19.00;;;;;;;;;;12823952;22;20098;-71
2023/12/03 21:57:38;;;;;;;30.45;17.20;;;;;;;;;;12823220;22;20534;-71
2023/12/03 22:02:35;;;;;;;31.30;17.38;;;;;;;;;;12815818;22;20369;-71
2023/12/03 22:07:31;;;;;;;28.50;17.33;;;;;;;;;;12823939;22;20023;-71
2023/12/03 22:12:28;;;;;;;33.95;19.20;;;;;;;;;;12822675;22;20033;-71
2023/12/03 22:17:24;;;;;;;35.45;19.60;;;;;;;;;;12823418;22;20023;-71
2023/12/03 22:22:20;;;;;;;30.50;18.60;;;;;;;;;;12823058;22;20023;-72
2023/12/03 22:27:17;;;;;;;33.40;18.23;;;;;;;;;;12823141;22;20023;-71
2023/12/03 22:32:14;;;;;;;32.38;18.98;;;;;;;;;;12823054;22;20023;-71
2023/12/03 22:37:11;;;;;;;31.48;19.38;;;;;;;;;;12822953;22;20031;-72
2023/12/03 22:42:07;;;;;;;32.78;17.65;;;;;;;;;;12823034;22;20019;-71
2023/12/03 22:47:04;;;;;;;33.10;19.10;;;;;;;;;;12822590;22;20019;-71
2023/12/03 22:52:00;;;;;;;28.48;18.42;;;;;;;;;;12822874;22;20031;-71
2023/12/03 22:56:56;;;;;;;29.67;17.67;;;;;;;;;;12821740;22;20346;-71
2023/12/03 23:01:53;;;;;;;30.45;17.33;;;;;;;;;;12816494;22;20413;-71
2023/12/03 23:06:49;;;;;;;32.03;17.55;;;;;;;;;;12822749;22;20479;-71
2023/12/03 23:11:46;;;;;;;27.90;17.50;;;;;;;;;;12821839;22;20019;-71
2023/12/03 23:16:42;;;;;;;33.42;17.77;;;;;;;;;;12821827;22;20019;-71
2023/12/03 23:21:39;;;;;;;30.45;18.20;;;;;;;;;;12821627;22;20364;-72
2023/12/03 23:26:39;;;;;;;31.27;16.80;;;;;;;;;;12821966;22;20102;-71
2023/12/03 23:31:36;;;;;;;29.63;17.10;;;;;;;;;;12821311;22;20106;-71
2023/12/03 23:36:33;;;;;;;31.42;15.82;;;;;;;;;;12822128;22;20106;-71
2023/12/03 23:41:29;;;;;;;27.73;16.55;;;;;;;;;;12821757;22;20047;-70
2023/12/03 23:46:25;;;;;;;27.98;16.60;;;;;;;;;;12821983;22;20437;-72
2023/12/03 23:51:22;;;;;;;30.58;16.38;;;;;;;;;;12820380;22;20027;-71
2023/12/03 23:56:20;;;;;;;26.67;15.57;;;;;;;;;;12820385;22;20023;-71
